createdAt,value
2022-11-26T00:00:51.472Z,5.75
2022-11-26T00:03:19.571Z,5.47
2022-11-26T00:05:49.051Z,5.03
2022-11-26T00:08:23.141Z,5.03
2022-11-26T00:10:52.156Z,5.18
2022-11-26T00:13:21.404Z,4.85
2022-11-26T00:15:49.553Z,5.50
2022-11-26T00:18:17.608Z,5.05
2022-11-26T00:20:45.776Z,5.35
2022-11-26T00:23:21.453Z,5.10
2022-11-26T00:25:50.401Z,5.10
2022-11-26T00:28:34.769Z,5.28
2022-11-26T00:31:07.442Z,5.18
2022-11-26T00:33:35.036Z,4.95
2022-11-26T00:36:04.334Z,5.13
2022-11-26T00:38:32.102Z,4.57
2022-11-26T00:41:00.118Z,5.05
2022-11-26T00:43:27.697Z,5.43
2022-11-26T00:45:55.318Z,4.75
2022-11-26T00:48:22.925Z,4.60
2022-11-26T00:50:51.631Z,5.10
2022-11-26T00:53:21.647Z,5.22
2022-11-26T00:55:50.627Z,4.75
2022-11-26T00:58:26.854Z,4.70
2022-11-26T01:00:55.258Z,5.00
2022-11-26T01:03:22.910Z,4.25
2022-11-26T01:05:54.248Z,4.45
2022-11-26T01:08:27.972Z,4.53
2022-11-26T01:10:55.555Z,4.57
2022-11-26T01:13:23.146Z,4.28
2022-11-26T01:15:50.807Z,4.10
2022-11-26T01:18:21.096Z,4.25
2022-11-26T01:20:49.238Z,4.50
2022-11-26T01:23:18.110Z,4.93
2022-11-26T01:25:46.393Z,4.00
2022-11-26T01:28:15.994Z,4.55
2022-11-26T01:30:43.690Z,3.97
2022-11-26T01:33:11.577Z,3.97
2022-11-26T01:35:39.166Z,4.30
2022-11-26T01:38:06.699Z,4.45
2022-11-26T01:40:53.157Z,4.57
2022-11-26T01:43:23.801Z,4.07
2022-11-26T01:45:51.440Z,4.20
2022-11-26T01:48:27.561Z,4.32
2022-11-26T01:51:00.074Z,4.72
2022-11-26T01:53:38.066Z,3.95
2022-11-26T01:56:17.662Z,4.10
2022-11-26T01:59:05.505Z,3.88
2022-11-26T02:01:34.034Z,4.03
2022-11-26T02:04:20.442Z,3.70
2022-11-26T02:06:49.272Z,4.05
2022-11-26T02:09:17.201Z,4.10
2022-11-26T02:11:44.842Z,3.65
2022-11-26T02:14:12.439Z,4.22
2022-11-26T02:16:59.044Z,3.00
2022-11-26T02:19:27.740Z,3.92
2022-11-26T02:22:02.182Z,3.40
2022-11-26T02:24:39.100Z,3.60
2022-11-26T02:27:19.032Z,3.53
2022-11-26T02:30:05.773Z,3.40
2022-11-26T02:32:48.083Z,3.67
2022-11-26T02:35:23.275Z,3.28
2022-11-26T02:37:59.995Z,3.40
2022-11-26T02:40:27.587Z,3.30
2022-11-26T02:42:55.290Z,4.03
2022-11-26T02:45:27.616Z,3.97
2022-11-26T02:47:58.434Z,3.80
2022-11-26T02:50:28.116Z,3.00
2022-11-26T02:52:57.633Z,3.45
2022-11-26T02:55:27.141Z,3.40
2022-11-26T02:57:55.162Z,3.53
2022-11-26T03:00:22.950Z,4.15
2022-11-26T03:02:54.478Z,3.40
2022-11-26T03:05:22.112Z,3.63
2022-11-26T03:07:51.688Z,3.83
2022-11-26T03:10:21.155Z,3.95
2022-11-26T03:12:48.727Z,3.50
2022-11-26T03:15:16.273Z,3.45
2022-11-26T03:17:43.814Z,3.70
2022-11-26T03:20:11.603Z,3.47
2022-11-26T03:22:39.167Z,4.10
2022-11-26T03:25:07.013Z,3.33
2022-11-26T03:27:34.575Z,3.45
2022-11-26T03:30:02.235Z,3.90
2022-11-26T03:32:29.906Z,3.38
2022-11-26T03:34:57.460Z,3.60
2022-11-26T03:37:25.031Z,3.83
2022-11-26T03:39:52.597Z,3.55
2022-11-26T03:42:20.164Z,3.63
2022-11-26T03:44:47.706Z,3.35
2022-11-26T03:47:15.290Z,4.45
2022-11-26T03:49:42.858Z,3.50
2022-11-26T03:52:10.389Z,4.03
2022-11-26T03:54:38.069Z,4.18
2022-11-26T03:57:05.787Z,3.58
2022-11-26T03:59:33.334Z,3.97
2022-11-26T04:02:00.970Z,3.55
2022-11-26T04:04:28.579Z,3.33
2022-11-26T04:06:56.101Z,3.60
2022-11-26T04:09:24.058Z,3.65
2022-11-26T04:11:51.902Z,4.00
2022-11-26T04:14:19.496Z,4.07
2022-11-26T04:16:47.147Z,3.60
2022-11-26T04:19:14.727Z,4.15
2022-11-26T04:21:42.253Z,3.92
2022-11-26T04:24:09.889Z,4.22
2022-11-26T04:26:37.459Z,4.20
2022-11-26T04:29:05.245Z,4.03
2022-11-26T04:31:32.822Z,4.00
2022-11-26T04:34:00.403Z,4.13
2022-11-26T04:36:27.984Z,4.00
2022-11-26T04:38:55.561Z,3.67
2022-11-26T04:41:23.235Z,4.15
2022-11-26T04:43:50.754Z,3.90
2022-11-26T04:46:18.402Z,4.40
2022-11-26T04:48:46.009Z,4.07
2022-11-26T04:51:13.611Z,3.85
2022-11-26T04:53:41.171Z,3.95
2022-11-26T04:56:08.726Z,4.55
2022-11-26T04:58:36.347Z,3.95
2022-11-26T05:01:03.937Z,4.20
2022-11-26T05:03:31.750Z,4.20
2022-11-26T05:05:59.362Z,4.10
2022-11-26T05:08:26.907Z,4.97
2022-11-26T05:10:58.687Z,4.63
2022-11-26T05:13:26.230Z,4.65
2022-11-26T05:15:53.759Z,5.03
2022-11-26T05:18:21.349Z,4.70
2022-11-26T05:20:48.928Z,5.03
2022-11-26T05:23:16.477Z,4.95
2022-11-26T05:25:44.031Z,4.55
2022-11-26T05:28:11.573Z,5.10
2022-11-26T05:30:39.242Z,5.60
2022-11-26T05:33:06.783Z,4.82
2022-11-26T05:35:34.445Z,5.03
2022-11-26T05:38:02.002Z,4.55
2022-11-26T05:40:29.547Z,4.97
2022-11-26T05:42:57.102Z,4.80
2022-11-26T05:45:24.728Z,5.13
2022-11-26T05:47:52.301Z,4.90
2022-11-26T05:50:19.962Z,5.07
2022-11-26T05:52:47.562Z,5.13
2022-11-26T05:55:16.798Z,5.03
2022-11-26T05:57:44.405Z,4.85
2022-11-26T06:00:12.685Z,4.80
2022-11-26T06:02:40.282Z,4.78
2022-11-26T06:05:08.148Z,5.53
2022-11-26T06:07:37.564Z,4.97
2022-11-26T06:10:08.924Z,5.45
2022-11-26T06:12:36.632Z,5.32
2022-11-26T06:15:04.485Z,4.90
2022-11-26T06:17:32.083Z,5.20
2022-11-26T06:19:59.957Z,4.90
2022-11-26T06:22:27.520Z,4.85
2022-11-26T06:24:55.089Z,5.20
2022-11-26T06:27:22.664Z,5.07
2022-11-26T06:29:50.215Z,4.93
2022-11-26T06:32:17.755Z,5.20
2022-11-26T06:34:47.670Z,4.63
2022-11-26T06:37:18.726Z,5.30
2022-11-26T06:39:46.275Z,4.50
2022-11-26T06:42:13.815Z,4.80
2022-11-26T06:44:41.527Z,4.40
2022-11-26T06:47:12.665Z,4.90
2022-11-26T06:49:40.622Z,4.50
2022-11-26T06:52:08.213Z,4.50
2022-11-26T06:54:35.815Z,4.90
2022-11-26T06:57:03.434Z,4.80
2022-11-26T06:59:31.318Z,4.50
2022-11-26T07:01:59.031Z,4.07
2022-11-26T07:04:26.634Z,4.22
2022-11-26T07:06:54.188Z,3.58
2022-11-26T07:09:21.763Z,4.18
2022-11-26T07:11:50.053Z,3.80
2022-11-26T07:14:17.708Z,3.47
2022-11-26T07:16:45.303Z,3.67
2022-11-26T07:19:14.190Z,3.42
2022-11-26T07:21:42.184Z,2.83
2022-11-26T07:24:09.715Z,3.00
2022-11-26T07:26:37.304Z,2.85
2022-11-26T07:29:05.047Z,3.10
2022-11-26T07:31:32.714Z,2.60
2022-11-26T07:34:00.373Z,2.90
2022-11-26T07:36:28.991Z,3.47
2022-11-26T07:39:00.666Z,3.08
2022-11-26T07:41:28.954Z,2.50
2022-11-26T07:43:56.665Z,2.70
2022-11-26T07:46:26.731Z,3.17
2022-11-26T07:48:55.454Z,2.63
2022-11-26T07:51:27.413Z,2.08
2022-11-26T07:53:55.522Z,1.90
2022-11-26T07:56:23.498Z,2.10
2022-11-26T07:58:51.476Z,2.15
2022-11-26T08:01:20.992Z,2.03
2022-11-26T08:03:49.471Z,1.85
2022-11-26T08:06:20.451Z,1.90
2022-11-26T08:08:48.078Z,2.27
2022-11-26T08:11:16.633Z,1.77
2022-11-26T08:13:44.568Z,2.08
2022-11-26T08:16:12.610Z,1.77
2022-11-26T08:18:41.675Z,1.80
2022-11-26T08:21:10.632Z,1.67
2022-11-26T08:23:39.409Z,1.80
2022-11-26T08:28:59.362Z,1.75
2022-11-26T08:31:27.931Z,1.90
2022-11-26T08:34:01.946Z,2.00
2022-11-26T08:36:30.159Z,2.00
2022-11-26T08:38:58.029Z,2.20
2022-11-26T08:41:25.569Z,1.98
2022-11-26T08:44:08.937Z,2.33
2022-11-26T08:46:37.585Z,2.45
2022-11-26T08:49:05.750Z,2.33
2022-11-26T08:51:33.572Z,2.42
2022-11-26T08:54:01.185Z,2.75
2022-11-26T08:56:28.819Z,2.70
2022-11-26T08:58:56.364Z,1.98
2022-11-26T09:01:25.449Z,2.90
2022-11-26T09:04:00.197Z,2.30
2022-11-26T09:06:29.438Z,2.47
2022-11-26T09:09:12.555Z,2.50
2022-11-26T09:11:41.506Z,2.67
2022-11-26T09:14:09.654Z,2.85
2022-11-26T09:16:37.572Z,2.53
2022-11-26T09:19:06.125Z,2.60
2022-11-26T09:21:35.123Z,2.80
2022-11-26T09:24:03.138Z,2.53
2022-11-26T09:26:31.838Z,2.40
2022-11-26T09:28:59.640Z,2.58
2022-11-26T09:31:27.526Z,2.72
2022-11-26T09:33:59.032Z,2.50
2022-11-26T09:36:27.306Z,2.50
2022-11-26T09:38:55.804Z,2.70
2022-11-26T09:41:32.288Z,3.00
2022-11-26T09:43:59.813Z,3.30
2022-11-26T09:47:04.365Z,3.47
2022-11-26T09:49:30.942Z,2.83
2022-11-26T09:51:59.723Z,2.85
2022-11-26T09:54:29.056Z,3.00
2022-11-26T09:57:22.776Z,2.83
2022-11-26T09:59:50.834Z,3.35
2022-11-26T10:02:18.772Z,3.08
2022-11-26T10:04:46.774Z,3.38
2022-11-26T10:07:17.571Z,3.08
2022-11-26T10:10:03.565Z,3.45
2022-11-26T10:13:17.438Z,3.05
2022-11-26T10:15:43.870Z,3.47
2022-11-26T10:18:14.363Z,3.42
2022-11-26T10:20:51.032Z,2.85
2022-11-26T10:23:23.358Z,3.25
2022-11-26T10:25:54.427Z,3.08
2022-11-26T10:28:27.067Z,3.40
2022-11-26T10:30:59.570Z,3.70
2022-11-26T10:33:29.588Z,3.35
2022-11-26T10:35:57.143Z,3.15
2022-11-26T10:38:24.712Z,3.85
2022-11-26T10:40:52.270Z,3.97
2022-11-26T10:43:21.800Z,4.35
2022-11-26T10:45:50.869Z,5.10
2022-11-26T10:48:22.965Z,5.93
2022-11-26T10:50:56.619Z,5.28
2022-11-26T10:53:24.785Z,6.00
2022-11-26T10:55:53.115Z,5.93
2022-11-26T10:58:22.762Z,6.30
2022-11-26T11:00:50.455Z,6.28
2022-11-26T11:03:38.526Z,6.45
2022-11-26T11:06:24.814Z,6.38
2022-11-26T11:11:29.971Z,6.07
2022-11-26T11:13:58.088Z,5.45
2022-11-26T11:16:38.283Z,5.97
2022-11-26T11:19:11.212Z,6.80
2022-11-26T11:21:43.842Z,6.43
2022-11-26T11:24:18.505Z,6.57
2022-11-26T11:29:25.726Z,6.20
2022-11-26T11:31:53.392Z,6.55
2022-11-26T11:34:22.265Z,6.13
2022-11-26T11:37:25.262Z,6.40
2022-11-26T11:40:17.314Z,5.03
2022-11-26T11:42:51.623Z,5.05
2022-11-26T11:45:26.100Z,5.55
2022-11-26T11:47:57.496Z,5.60
2022-11-26T11:50:32.432Z,5.75
2022-11-26T11:53:06.330Z,5.97
2022-11-26T11:55:34.095Z,6.57
2022-11-26T11:58:40.812Z,6.07
2022-11-26T12:01:11.510Z,5.90
2022-11-26T12:03:51.138Z,7.63
2022-11-26T12:06:39.993Z,5.72
2022-11-26T12:09:13.418Z,5.53
2022-11-26T12:12:10.626Z,5.45
2022-11-26T12:15:07.414Z,5.40
2022-11-26T12:17:40.618Z,5.47
2022-11-26T12:20:18.122Z,31.20
2022-11-26T12:22:48.954Z,5.10
2022-11-26T12:25:22.815Z,5.57
2022-11-26T12:27:55.515Z,4.50
2022-11-26T12:30:26.491Z,4.38
2022-11-26T12:32:56.190Z,4.13
2022-11-26T12:35:34.949Z,4.28
2022-11-26T12:38:22.858Z,4.80
2022-11-26T12:40:54.393Z,4.90
2022-11-26T12:43:27.909Z,4.28
2022-11-26T12:46:15.917Z,4.30
2022-11-26T12:49:15.764Z,5.25
2022-11-26T12:52:02.082Z,4.90
2022-11-26T12:54:32.831Z,4.78
2022-11-26T12:57:12.393Z,4.70
2022-11-26T12:59:50.260Z,5.15
2022-11-26T13:02:21.059Z,5.18
2022-11-26T13:04:48.969Z,5.13
2022-11-26T13:07:48.265Z,5.38
2022-11-26T13:10:19.059Z,5.10
2022-11-26T13:13:03.540Z,3.92
2022-11-26T13:15:37.690Z,4.60
2022-11-26T13:18:10.663Z,4.05
2022-11-26T13:20:51.855Z,4.35
2022-11-26T13:23:28.311Z,4.13
2022-11-26T13:26:01.240Z,4.10
2022-11-26T13:28:45.260Z,4.00
2022-11-26T13:31:22.124Z,4.32
2022-11-26T13:34:08.690Z,4.60
2022-11-26T13:36:39.426Z,4.88
2022-11-26T13:39:22.077Z,4.90
2022-11-26T13:41:52.536Z,4.50
2022-11-26T13:44:29.015Z,4.20
2022-11-26T13:47:00.025Z,4.68
2022-11-26T13:49:33.867Z,4.47
2022-11-26T13:52:05.954Z,4.35
2022-11-26T13:54:38.343Z,4.50
2022-11-26T13:57:11.618Z,4.85
2022-11-26T13:59:45.934Z,3.55
2022-11-26T14:02:32.391Z,4.03
2022-11-26T14:05:05.032Z,3.70
2022-11-26T14:07:44.993Z,3.65
2022-11-26T14:10:31.740Z,3.60
2022-11-26T14:13:02.537Z,3.22
2022-11-26T14:15:42.630Z,3.55
2022-11-26T14:18:11.016Z,4.00
2022-11-26T14:20:57.442Z,4.35
2022-11-26T14:23:43.811Z,3.88
2022-11-26T14:26:12.702Z,5.95
2022-11-26T14:28:40.274Z,5.03
2022-11-26T14:31:13.221Z,3.58
2022-11-26T14:33:44.923Z,3.78
2022-11-26T14:36:20.387Z,3.90
2022-11-26T14:39:03.385Z,4.72
2022-11-26T14:41:51.975Z,4.43
2022-11-26T14:44:20.216Z,4.70
2022-11-26T14:46:52.459Z,4.30
2022-11-26T14:49:35.411Z,4.68
2022-11-26T14:52:05.692Z,5.03
2022-11-26T14:54:35.445Z,5.45
2022-11-26T14:57:05.929Z,5.88
2022-11-26T14:59:33.776Z,5.63
2022-11-26T15:02:01.555Z,6.00
2022-11-26T15:04:39.042Z,5.38
2022-11-26T15:07:07.207Z,6.57
2022-11-26T15:09:34.855Z,5.57
2022-11-26T15:12:03.016Z,6.03
2022-11-26T15:14:36.695Z,5.18
2022-11-26T15:17:05.988Z,5.35
2022-11-26T15:19:35.910Z,5.80
2022-11-26T15:22:08.099Z,6.22
2022-11-26T15:24:36.397Z,6.53
2022-11-26T15:27:04.146Z,6.47
2022-11-26T15:29:36.882Z,7.30
2022-11-26T15:32:04.896Z,6.18
2022-11-26T15:34:32.942Z,6.70
2022-11-26T15:37:00.647Z,11.43
2022-11-26T15:39:30.026Z,8.23
2022-11-26T15:42:08.544Z,6.85
2022-11-26T15:44:42.437Z,6.80
2022-11-26T15:47:18.846Z,7.85
2022-11-26T15:49:48.897Z,6.60
2022-11-26T15:52:16.639Z,6.55
2022-11-26T15:57:40.831Z,8.00
2022-11-26T16:00:19.742Z,6.97
2022-11-26T16:02:47.664Z,6.85
2022-11-26T16:05:24.814Z,7.07
2022-11-26T16:08:04.005Z,7.57
2022-11-26T16:10:35.536Z,7.63
2022-11-26T16:13:08.932Z,7.70
2022-11-26T16:15:37.249Z,7.53
2022-11-26T16:18:05.373Z,8.70
2022-11-26T16:20:32.985Z,8.60
2022-11-26T16:23:01.428Z,8.38
2022-11-26T16:25:30.984Z,11.57
2022-11-26T16:28:10.972Z,11.10
2022-11-26T16:30:39.888Z,11.18
2022-11-26T16:33:08.243Z,9.93
2022-11-26T16:35:51.427Z,8.60
2022-11-26T16:38:22.941Z,8.85
2022-11-26T16:40:51.329Z,7.75
2022-11-26T16:43:19.137Z,8.02
2022-11-26T16:45:48.000Z,7.00
2022-11-26T16:48:26.184Z,7.45
2022-11-26T16:50:55.595Z,7.70
2022-11-26T16:53:23.778Z,8.15
2022-11-26T16:55:52.851Z,8.25
2022-11-26T16:58:27.503Z,7.78
2022-11-26T17:00:55.837Z,9.02
2022-11-26T17:03:23.991Z,8.25
2022-11-26T17:05:56.590Z,9.35
2022-11-26T17:08:24.718Z,10.35
2022-11-26T17:10:52.796Z,8.45
2022-11-26T17:13:21.269Z,8.95
2022-11-26T17:15:51.693Z,10.05
2022-11-26T17:18:21.798Z,9.18
2022-11-26T17:20:51.690Z,8.98
2022-11-26T17:23:19.742Z,10.65
2022-11-26T17:25:51.490Z,9.45
2022-11-26T17:28:21.845Z,11.23
2022-11-26T17:30:51.285Z,10.30
2022-11-26T17:33:19.867Z,13.07
2022-11-26T17:35:49.457Z,13.70
2022-11-26T17:38:19.858Z,11.15
2022-11-26T17:40:48.798Z,10.52
2022-11-26T17:43:17.191Z,11.05
2022-11-26T17:45:45.940Z,11.35
2022-11-26T17:48:14.391Z,10.27
2022-11-26T17:50:42.633Z,12.05
2022-11-26T17:53:10.479Z,15.40
2022-11-26T17:55:39.034Z,20.13
2022-11-26T17:58:06.866Z,17.95
2022-11-26T18:00:34.460Z,17.35
2022-11-26T18:03:02.076Z,13.45
2022-11-26T18:05:29.712Z,14.98
2022-11-26T18:07:57.444Z,13.85
2022-11-26T18:10:25.225Z,12.93
2022-11-26T18:12:54.908Z,14.55
2022-11-26T18:15:24.374Z,22.00
2022-11-26T18:17:53.114Z,34.58
2022-11-26T18:20:22.316Z,77.97
2022-11-26T18:22:50.963Z,72.50
2022-11-26T18:25:18.689Z,37.78
2022-11-26T18:27:46.291Z,17.58
2022-11-26T18:30:14.309Z,13.40
2022-11-26T18:32:41.879Z,13.18
2022-11-26T18:35:09.993Z,14.52
2022-11-26T18:37:38.612Z,13.32
2022-11-26T18:40:10.902Z,12.35
2022-11-26T18:42:38.903Z,11.82
2022-11-26T18:45:07.516Z,10.93
2022-11-26T18:47:35.149Z,11.80
2022-11-26T18:50:02.827Z,10.40
2022-11-26T18:52:30.405Z,10.10
2022-11-26T18:54:58.065Z,10.35
2022-11-26T18:57:25.616Z,9.30
2022-11-26T18:59:53.263Z,9.80
2022-11-26T19:02:21.030Z,9.20
2022-11-26T19:04:48.817Z,9.02
2022-11-26T19:07:16.371Z,10.00
2022-11-26T19:09:43.913Z,10.00
2022-11-26T19:12:13.063Z,8.85
2022-11-26T19:14:40.808Z,10.63
2022-11-26T19:17:09.439Z,10.23
2022-11-26T19:19:38.696Z,11.10
2022-11-26T19:22:06.557Z,11.63
2022-11-26T19:24:34.181Z,9.90
2022-11-26T19:27:01.776Z,12.85
2022-11-26T19:29:29.338Z,12.50
2022-11-26T19:31:56.894Z,11.50
2022-11-26T19:34:24.484Z,11.50
2022-11-26T19:36:56.507Z,11.55
2022-11-26T19:39:24.306Z,13.82
2022-11-26T19:41:51.956Z,12.50
2022-11-26T19:44:19.544Z,12.98
2022-11-26T19:46:48.196Z,11.13
2022-11-26T19:49:15.942Z,96.53
2022-11-26T19:51:43.815Z,13.48
2022-11-26T19:54:11.646Z,13.85
2022-11-26T19:56:39.345Z,25.17
2022-11-26T19:59:06.992Z,18.60
2022-11-26T20:01:35.018Z,15.20
2022-11-26T20:04:04.377Z,39.05
2022-11-26T20:06:32.789Z,45.40
2022-11-26T20:09:00.385Z,15.13
2022-11-26T20:11:29.037Z,159.02
2022-11-26T20:13:57.146Z,21.10
2022-11-26T20:16:26.020Z,15.73
2022-11-26T20:18:53.741Z,14.43
2022-11-26T20:21:22.833Z,15.73
2022-11-26T20:23:51.607Z,18.20
2022-11-26T20:26:19.172Z,19.92
2022-11-26T20:28:46.906Z,71.47
2022-11-26T20:31:19.264Z,42.72
2022-11-26T20:33:49.732Z,135.48
2022-11-26T20:36:20.346Z,26.48
2022-11-26T20:38:48.316Z,350.98
2022-11-26T20:41:17.182Z,198.38
2022-11-26T20:43:45.292Z,116.10
2022-11-26T20:46:14.736Z,210.45
2022-11-26T20:48:43.616Z,44.95
2022-11-26T20:51:15.025Z,18.40
2022-11-26T20:53:49.618Z,16.25
2022-11-26T20:56:17.645Z,135.15
2022-11-26T20:58:45.666Z,51.15
2022-11-26T21:01:21.768Z,20.17
2022-11-26T21:03:49.765Z,20.05
2022-11-26T21:06:18.851Z,172.35
2022-11-26T21:08:46.578Z,25.73
2022-11-26T21:11:14.883Z,81.18
2022-11-26T21:13:42.787Z,129.40
2022-11-26T21:16:12.387Z,363.88
2022-11-26T21:18:40.086Z,158.95
2022-11-26T21:21:11.194Z,34.78
2022-11-26T21:23:39.646Z,64.43
2022-11-26T21:26:11.373Z,44.80
2022-11-26T21:31:14.820Z,111.13
2022-11-26T21:33:42.641Z,160.77
2022-11-26T21:36:40.053Z,74.13
2022-11-26T21:39:07.797Z,70.35
2022-11-26T21:41:36.663Z,197.80
2022-11-26T21:44:04.517Z,289.90
2022-11-26T21:46:36.501Z,217.35
2022-11-26T21:49:05.854Z,220.45
2022-11-26T21:51:33.456Z,26.48
2022-11-26T21:54:01.032Z,20.23
2022-11-26T21:56:30.056Z,146.90
2022-11-26T21:58:58.425Z,74.57
2022-11-26T22:01:36.620Z,151.43
2022-11-26T22:04:07.154Z,349.80
2022-11-26T22:06:35.314Z,322.87
2022-11-26T22:09:03.277Z,466.27
2022-11-26T22:11:32.008Z,159.35
2022-11-26T22:13:59.666Z,255.73
2022-11-26T22:16:28.112Z,83.57
2022-11-26T22:18:56.418Z,162.57
2022-11-26T22:21:25.449Z,40.75
2022-11-26T22:23:53.139Z,95.97
2022-11-26T22:26:23.003Z,174.18
2022-11-26T22:28:51.152Z,216.82
2022-11-26T22:31:21.989Z,101.70
2022-11-26T22:33:50.073Z,100.30
2022-11-26T22:36:17.864Z,129.10
2022-11-26T22:38:45.706Z,140.00
2022-11-26T22:41:13.903Z,44.45
2022-11-26T22:43:42.629Z,30.38
2022-11-26T22:46:12.289Z,441.13
2022-11-26T22:48:39.930Z,218.85
2022-11-26T22:51:08.163Z,44.05
2022-11-26T22:53:36.309Z,135.27
2022-11-26T22:56:04.414Z,22.27
2022-11-26T22:58:33.269Z,146.10
2022-11-26T23:01:04.030Z,89.38
2022-11-26T23:03:33.813Z,170.20
2022-11-26T23:06:05.654Z,113.13
2022-11-26T23:11:20.885Z,123.00
2022-11-26T23:13:49.703Z,248.82
2022-11-26T23:16:18.250Z,255.98
2022-11-26T23:18:45.934Z,259.42
2022-11-26T23:21:15.523Z,246.43
2022-11-26T23:23:43.413Z,195.70
2022-11-26T23:26:12.490Z,198.85
2022-11-26T23:28:40.132Z,115.63
2022-11-26T23:31:09.003Z,30.92
2022-11-26T23:33:37.667Z,18.13
2022-11-26T23:36:05.388Z,11.30
2022-11-26T23:38:32.998Z,45.08
2022-11-26T23:41:02.401Z,54.03
2022-11-26T23:43:30.987Z,17.17
2022-11-26T23:46:06.457Z,161.82
2022-11-26T23:48:34.174Z,22.98
2022-11-26T23:51:01.787Z,114.35
2022-11-26T23:53:29.332Z,99.80
2022-11-26T23:56:01.835Z,104.22
2022-11-26T23:58:29.507Z,23.27
